createdAt,value
2023-04-09T00:00:48.709Z,91.20
2023-04-09T00:03:15.521Z,91.10
2023-04-09T00:05:42.409Z,91.20
2023-04-09T00:08:09.254Z,91.20
2023-04-09T00:10:36.178Z,91.50
2023-04-09T00:13:02.915Z,91.50
2023-04-09T00:15:31.597Z,91.10
2023-04-09T00:17:59.176Z,91.20
2023-04-09T00:20:26.267Z,91.40
2023-04-09T00:22:53.193Z,91.50
2023-04-09T00:25:20.360Z,91.60
2023-04-09T00:27:47.262Z,91.80
2023-04-09T00:30:14.237Z,91.80
2023-04-09T00:32:41.168Z,91.70
2023-04-09T00:35:08.524Z,91.60
2023-04-09T00:37:35.453Z,92.00
2023-04-09T00:40:02.255Z,91.90
2023-04-09T00:42:33.061Z,92.10
2023-04-09T00:45:00.418Z,91.90
2023-04-09T00:47:28.502Z,92.00
2023-04-09T00:49:55.700Z,92.10
2023-04-09T00:52:23.016Z,91.80
2023-04-09T00:54:50.913Z,91.70
2023-04-09T00:57:18.222Z,91.60
2023-04-09T00:59:45.184Z,91.70
2023-04-09T01:02:12.618Z,91.60
2023-04-09T01:04:41.741Z,91.50
2023-04-09T01:07:13.064Z,91.80
2023-04-09T01:09:39.856Z,91.80
2023-04-09T01:12:12.201Z,92.10
2023-04-09T01:14:57.386Z,92.10
2023-04-09T01:17:42.736Z,91.90
2023-04-09T01:20:12.203Z,91.60
2023-04-09T01:22:57.770Z,91.70
2023-04-09T01:25:30.762Z,91.90
2023-04-09T01:28:16.877Z,91.80
2023-04-09T01:30:47.535Z,92.10
2023-04-09T01:33:15.481Z,92.10
2023-04-09T01:35:43.182Z,92.10
2023-04-09T01:38:10.949Z,92.40
2023-04-09T01:40:37.736Z,92.20
2023-04-09T01:43:06.482Z,92.00
2023-04-09T01:45:34.116Z,92.10
2023-04-09T01:48:01.334Z,92.00
2023-04-09T01:50:28.313Z,91.60
2023-04-09T01:52:55.199Z,92.00
2023-04-09T01:55:22.051Z,92.10
2023-04-09T01:57:48.739Z,92.10
2023-04-09T02:00:16.469Z,92.10
2023-04-09T02:02:55.695Z,92.40
2023-04-09T02:05:27.214Z,92.30
2023-04-09T02:07:56.117Z,92.20
2023-04-09T02:10:24.454Z,91.80
2023-04-09T02:12:51.628Z,92.00
2023-04-09T02:15:19.586Z,91.90
2023-04-09T02:17:46.496Z,92.40
2023-04-09T02:20:17.573Z,91.60
2023-04-09T02:22:44.943Z,91.40
2023-04-09T02:25:11.816Z,91.00
2023-04-09T02:27:38.689Z,90.80
2023-04-09T02:30:05.756Z,90.80
2023-04-09T02:32:32.572Z,90.50
2023-04-09T02:34:59.543Z,90.60
2023-04-09T02:37:26.206Z,90.70
2023-04-09T02:39:53.205Z,90.60
2023-04-09T02:42:20.497Z,90.80
2023-04-09T02:44:47.250Z,90.40
2023-04-09T02:47:14.130Z,90.50
2023-04-09T02:49:40.992Z,90.70
2023-04-09T02:52:09.663Z,91.10
2023-04-09T02:54:36.542Z,90.90
2023-04-09T02:57:03.704Z,90.80
2023-04-09T02:59:32.341Z,90.80
2023-04-09T03:01:59.288Z,90.50
2023-04-09T03:04:26.361Z,90.50
2023-04-09T03:06:53.096Z,90.70
2023-04-09T03:09:19.779Z,90.80
2023-04-09T03:11:46.567Z,90.50
2023-04-09T03:14:13.213Z,90.80
2023-04-09T03:16:39.956Z,90.90
2023-04-09T03:19:06.754Z,90.90
2023-04-09T03:21:33.488Z,91.20
2023-04-09T03:24:00.187Z,91.30
2023-04-09T03:26:40.143Z,91.30
2023-04-09T03:29:07.308Z,91.20
2023-04-09T03:31:34.173Z,91.40
2023-04-09T03:34:01.000Z,91.70
2023-04-09T03:36:28.200Z,91.70
2023-04-09T03:38:55.015Z,91.60
2023-04-09T03:41:21.930Z,91.30
2023-04-09T03:43:48.733Z,91.80
2023-04-09T03:46:16.036Z,92.10
2023-04-09T03:48:42.959Z,92.10
2023-04-09T03:51:13.239Z,92.10
2023-04-09T03:53:40.570Z,92.10
2023-04-09T03:56:07.976Z,92.00
2023-04-09T03:58:34.846Z,92.30
2023-04-09T04:01:01.749Z,92.00
2023-04-09T04:03:28.944Z,92.00
2023-04-09T04:06:00.352Z,92.20
2023-04-09T04:08:27.196Z,92.30
2023-04-09T04:10:54.056Z,92.70
2023-04-09T04:13:21.152Z,92.80
2023-04-09T04:15:48.039Z,93.00
2023-04-09T04:18:14.949Z,93.10
2023-04-09T04:20:41.804Z,93.20
2023-04-09T04:23:08.672Z,93.30
2023-04-09T04:25:35.632Z,93.40
2023-04-09T04:28:02.341Z,93.20
2023-04-09T04:30:29.136Z,93.30
2023-04-09T04:32:56.092Z,93.20
2023-04-09T04:35:23.056Z,93.20
2023-04-09T04:37:51.033Z,93.40
2023-04-09T04:40:18.011Z,93.50
2023-04-09T04:42:44.825Z,93.50
2023-04-09T04:45:11.564Z,93.20
2023-04-09T04:47:38.526Z,93.40
2023-04-09T04:50:05.878Z,93.40
2023-04-09T04:52:32.574Z,93.70
2023-04-09T04:54:59.439Z,93.70
2023-04-09T04:57:26.142Z,93.50
2023-04-09T04:59:52.930Z,93.70
2023-04-09T05:02:19.918Z,93.60
2023-04-09T05:04:46.798Z,93.90
2023-04-09T05:07:13.526Z,93.70
2023-04-09T05:09:42.940Z,93.60
2023-04-09T05:12:09.675Z,93.70
2023-04-09T05:14:36.501Z,93.70
2023-04-09T05:17:03.342Z,93.80
2023-04-09T05:19:30.064Z,93.80
2023-04-09T05:21:56.809Z,93.90
2023-04-09T05:24:23.695Z,93.80
2023-04-09T05:26:50.368Z,93.90
2023-04-09T05:29:17.406Z,94.00
2023-04-09T05:31:44.213Z,94.00
2023-04-09T05:34:11.255Z,94.00
2023-04-09T05:36:38.053Z,93.90
2023-04-09T05:39:04.900Z,93.60
2023-04-09T05:41:32.773Z,93.60
2023-04-09T05:44:01.003Z,93.70
2023-04-09T05:46:29.109Z,93.60
2023-04-09T05:48:55.973Z,93.40
2023-04-09T05:51:22.824Z,93.30
2023-04-09T05:53:50.457Z,93.20
2023-04-09T05:56:17.312Z,93.00
2023-04-09T05:58:44.112Z,92.90
2023-04-09T06:01:11.439Z,93.00
2023-04-09T06:03:38.208Z,93.20
2023-04-09T06:06:05.192Z,93.10
2023-04-09T06:08:31.999Z,93.40
2023-04-09T06:10:59.084Z,93.40
2023-04-09T06:13:26.232Z,93.30
2023-04-09T06:15:53.090Z,93.30
2023-04-09T06:18:19.903Z,93.30
2023-04-09T06:20:46.566Z,93.10
2023-04-09T06:23:13.623Z,92.90
2023-04-09T06:25:40.618Z,93.00
2023-04-09T06:28:07.588Z,93.30
2023-04-09T06:30:37.012Z,93.20
2023-04-09T06:33:03.855Z,93.00
2023-04-09T06:35:31.079Z,93.10
2023-04-09T06:37:57.864Z,92.90
2023-04-09T06:40:24.583Z,92.80
2023-04-09T06:42:51.578Z,92.60
2023-04-09T06:45:18.536Z,92.60
2023-04-09T06:47:45.318Z,92.40
2023-04-09T06:50:12.087Z,93.20
2023-04-09T06:52:39.002Z,92.40
2023-04-09T06:55:06.333Z,92.40
2023-04-09T06:57:33.199Z,92.60
2023-04-09T07:00:00.215Z,92.00
2023-04-09T07:02:28.044Z,92.20
2023-04-09T07:04:55.068Z,92.00
2023-04-09T07:07:24.261Z,91.90
2023-04-09T07:09:52.649Z,91.80
2023-04-09T07:12:28.962Z,92.00
2023-04-09T07:14:59.300Z,91.70
2023-04-09T07:17:26.098Z,91.90
2023-04-09T07:19:54.477Z,91.90
2023-04-09T07:22:22.155Z,91.10
2023-04-09T07:24:55.372Z,91.00
2023-04-09T07:27:31.669Z,91.30
2023-04-09T07:29:59.675Z,91.20
2023-04-09T07:32:28.079Z,91.30
2023-04-09T07:34:57.270Z,91.50
2023-04-09T07:37:24.301Z,90.70
2023-04-09T07:39:51.508Z,91.00
2023-04-09T07:42:18.413Z,91.00
2023-04-09T07:44:45.177Z,90.50
2023-04-09T07:47:12.998Z,90.80
2023-04-09T07:49:40.241Z,91.10
2023-04-09T07:52:07.577Z,91.00
2023-04-09T07:54:34.893Z,90.80
2023-04-09T07:57:02.145Z,90.70
2023-04-09T07:59:29.715Z,90.80
2023-04-09T08:01:56.727Z,91.40
2023-04-09T08:04:23.772Z,91.00
2023-04-09T08:06:51.357Z,91.50
2023-04-09T08:09:18.732Z,90.70
2023-04-09T08:11:45.957Z,90.60
2023-04-09T08:14:13.228Z,91.50
2023-04-09T08:16:44.224Z,90.50
2023-04-09T08:19:11.360Z,90.10
2023-04-09T08:21:38.983Z,90.20
2023-04-09T08:24:07.176Z,90.50
2023-04-09T08:26:34.117Z,90.40
2023-04-09T08:29:00.983Z,90.20
2023-04-09T08:31:27.808Z,89.90
2023-04-09T08:33:54.841Z,90.30
2023-04-09T08:36:22.269Z,89.10
2023-04-09T08:38:49.245Z,90.00
2023-04-09T08:41:17.690Z,88.40
2023-04-09T08:43:56.906Z,89.40
2023-04-09T08:46:24.877Z,88.40
2023-04-09T08:48:52.296Z,88.10
2023-04-09T08:51:20.839Z,88.10
2023-04-09T08:53:50.450Z,87.40
2023-04-09T08:56:17.223Z,87.10
2023-04-09T08:58:44.817Z,86.00
2023-04-09T09:01:21.726Z,86.80
2023-04-09T09:03:58.929Z,87.10
2023-04-09T09:06:30.182Z,87.70
2023-04-09T09:09:07.448Z,86.70
2023-04-09T09:11:38.525Z,87.00
2023-04-09T09:14:09.249Z,87.90
2023-04-09T09:16:40.211Z,86.30
2023-04-09T09:19:07.292Z,86.00
2023-04-09T09:21:36.576Z,86.10
2023-04-09T09:24:16.555Z,86.10
2023-04-09T09:26:43.768Z,85.90
2023-04-09T09:29:10.613Z,85.70
2023-04-09T09:31:46.137Z,86.20
2023-04-09T09:34:13.014Z,86.20
2023-04-09T09:36:39.945Z,86.00
2023-04-09T09:39:10.582Z,87.00
2023-04-09T09:41:37.528Z,85.60
2023-04-09T09:44:07.455Z,86.70
2023-04-09T09:46:35.394Z,86.80
2023-04-09T09:49:02.293Z,85.60
2023-04-09T09:51:29.116Z,85.80
2023-04-09T09:54:00.090Z,86.60
2023-04-09T09:56:35.240Z,86.40
2023-04-09T09:59:06.511Z,85.60
2023-04-09T10:01:33.584Z,86.20
2023-04-09T10:04:01.482Z,86.90
2023-04-09T10:06:28.843Z,87.10
2023-04-09T10:08:57.769Z,87.10
2023-04-09T10:11:24.713Z,86.50
2023-04-09T10:13:54.634Z,85.20
2023-04-09T10:16:23.338Z,86.40
2023-04-09T10:18:50.537Z,86.20
2023-04-09T10:21:28.473Z,85.80
2023-04-09T10:23:55.326Z,85.10
2023-04-09T10:26:27.553Z,87.20
2023-04-09T10:29:09.693Z,89.00
2023-04-09T10:31:47.108Z,87.30
2023-04-09T10:34:17.739Z,85.60
2023-04-09T10:36:45.105Z,85.30
2023-04-09T10:39:12.635Z,86.40
2023-04-09T10:41:39.890Z,88.30
2023-04-09T10:44:07.160Z,85.70
2023-04-09T10:46:36.941Z,85.70
2023-04-09T10:49:10.627Z,84.70
2023-04-09T10:51:40.625Z,85.90
2023-04-09T10:54:27.751Z,86.20
2023-04-09T10:57:24.593Z,85.10
2023-04-09T10:59:52.443Z,86.20
2023-04-09T11:02:38.039Z,85.50
2023-04-09T11:05:04.957Z,88.40
2023-04-09T11:07:33.090Z,88.90
2023-04-09T11:09:59.794Z,90.10
2023-04-09T11:12:26.646Z,88.60
2023-04-09T11:14:53.411Z,85.50
2023-04-09T11:17:20.178Z,85.00
2023-04-09T11:19:47.195Z,86.30
2023-04-09T11:22:13.913Z,88.70
2023-04-09T11:24:41.814Z,86.50
2023-04-09T11:27:09.153Z,86.50
2023-04-09T11:29:36.352Z,85.40
2023-04-09T11:32:05.300Z,85.00
2023-04-09T11:34:32.516Z,84.40
2023-04-09T11:36:59.888Z,87.30
2023-04-09T11:39:26.673Z,85.40
2023-04-09T11:41:53.598Z,87.60
2023-04-09T11:44:23.236Z,86.30
2023-04-09T11:46:50.501Z,84.10
2023-04-09T11:49:17.695Z,87.20
2023-04-09T11:51:44.505Z,84.10
2023-04-09T11:54:11.744Z,84.70
2023-04-09T11:56:38.553Z,84.30
2023-04-09T11:59:05.613Z,85.70
2023-04-09T12:01:33.084Z,85.30
2023-04-09T12:04:00.850Z,84.70
2023-04-09T12:06:28.028Z,87.10
2023-04-09T12:08:55.842Z,85.30
2023-04-09T12:11:28.214Z,85.80
2023-04-09T12:14:02.917Z,84.50
2023-04-09T12:16:35.864Z,87.20
2023-04-09T12:19:09.052Z,85.00
2023-04-09T12:21:50.925Z,89.30
2023-04-09T12:24:18.693Z,85.80
2023-04-09T12:26:46.037Z,85.30
2023-04-09T12:29:18.097Z,85.40
2023-04-09T12:31:45.403Z,90.70
2023-04-09T12:34:12.702Z,87.90
2023-04-09T12:36:40.134Z,89.00
2023-04-09T12:39:07.141Z,89.60
2023-04-09T12:41:33.867Z,87.20
2023-04-09T12:44:00.620Z,90.30
2023-04-09T12:46:28.338Z,90.20
2023-04-09T12:48:55.120Z,88.60
2023-04-09T12:51:22.060Z,86.20
2023-04-09T12:53:48.767Z,85.20
2023-04-09T12:56:15.522Z,86.00
2023-04-09T12:58:42.382Z,87.40
2023-04-09T13:01:09.187Z,85.00
2023-04-09T13:03:36.426Z,85.30
2023-04-09T13:06:03.510Z,84.70
2023-04-09T13:08:31.144Z,85.40
2023-04-09T13:10:57.971Z,84.50
2023-04-09T13:13:25.095Z,84.50
2023-04-09T13:15:52.153Z,84.50
2023-04-09T13:18:18.880Z,90.20
2023-04-09T13:20:45.757Z,89.70
2023-04-09T13:23:12.486Z,88.80
2023-04-09T13:25:39.230Z,90.90
2023-04-09T13:28:06.055Z,86.70
2023-04-09T13:30:32.791Z,84.10
2023-04-09T13:32:59.569Z,87.30
2023-04-09T13:35:26.423Z,81.90
2023-04-09T13:37:53.211Z,83.00
2023-04-09T13:40:20.003Z,82.70
2023-04-09T13:42:46.839Z,83.80
2023-04-09T13:45:13.614Z,88.00
2023-04-09T13:47:40.354Z,90.00
2023-04-09T13:50:07.650Z,83.10
2023-04-09T13:52:34.412Z,88.60
2023-04-09T13:55:01.399Z,83.30
2023-04-09T13:57:28.282Z,82.80
2023-04-09T13:59:55.022Z,84.10
2023-04-09T14:02:22.024Z,80.10
2023-04-09T14:04:49.162Z,87.30
2023-04-09T14:07:16.056Z,89.20
2023-04-09T14:09:43.144Z,82.40
2023-04-09T14:12:10.006Z,79.80
2023-04-09T14:14:36.748Z,79.70
2023-04-09T14:17:03.532Z,80.80
2023-04-09T14:19:30.450Z,80.80
2023-04-09T14:21:57.208Z,81.60
2023-04-09T14:24:23.966Z,79.70
2023-04-09T14:26:53.486Z,79.60
2023-04-09T14:29:21.062Z,79.50
2023-04-09T14:31:47.958Z,83.90
2023-04-09T14:34:14.817Z,85.80
2023-04-09T14:36:41.884Z,80.70
2023-04-09T14:39:09.073Z,80.50
2023-04-09T14:41:36.738Z,80.10
2023-04-09T14:44:03.485Z,80.50
2023-04-09T14:46:30.323Z,79.50
2023-04-09T14:48:57.180Z,79.70
2023-04-09T14:51:23.874Z,80.70
2023-04-09T14:53:50.549Z,78.40
2023-04-09T14:56:17.310Z,85.40
2023-04-09T14:58:44.045Z,86.80
2023-04-09T15:01:11.130Z,81.90
2023-04-09T15:03:37.925Z,87.80
2023-04-09T15:06:04.870Z,86.80
2023-04-09T15:08:31.764Z,80.70
2023-04-09T15:10:58.688Z,79.20
2023-04-09T15:13:25.540Z,80.30
2023-04-09T15:15:52.468Z,80.70
2023-04-09T15:18:21.670Z,77.80
2023-04-09T15:20:48.737Z,78.30
2023-04-09T15:23:15.673Z,84.90
2023-04-09T15:25:42.372Z,84.80
2023-04-09T15:28:09.136Z,81.90
2023-04-09T15:30:35.950Z,80.40
2023-04-09T15:33:02.795Z,79.70
2023-04-09T15:35:29.690Z,78.20
2023-04-09T15:37:59.354Z,77.60
2023-04-09T15:40:26.167Z,77.00
2023-04-09T15:42:52.914Z,78.80
2023-04-09T15:45:19.649Z,80.90
2023-04-09T15:47:46.962Z,78.80
2023-04-09T15:50:14.447Z,78.50
2023-04-09T15:52:41.229Z,78.30
2023-04-09T15:55:08.196Z,78.60
2023-04-09T15:57:34.917Z,79.10
2023-04-09T16:00:01.743Z,79.10
2023-04-09T16:02:28.718Z,78.60
2023-04-09T16:04:55.645Z,78.10
2023-04-09T16:07:22.426Z,77.80
2023-04-09T16:09:49.594Z,77.10
2023-04-09T16:12:16.311Z,76.80
2023-04-09T16:14:43.286Z,78.50
2023-04-09T16:17:10.388Z,77.90
2023-04-09T16:19:37.186Z,77.40
2023-04-09T16:22:03.967Z,78.30
2023-04-09T16:24:31.798Z,78.30
2023-04-09T16:26:58.500Z,77.70
2023-04-09T16:29:25.382Z,77.40
2023-04-09T16:31:52.914Z,79.30
2023-04-09T16:34:20.024Z,78.90
2023-04-09T16:36:46.724Z,77.20
2023-04-09T16:39:15.296Z,78.20
2023-04-09T16:41:42.991Z,77.70
2023-04-09T16:44:09.873Z,78.30
2023-04-09T16:46:36.654Z,77.30
2023-04-09T16:49:03.378Z,76.50
2023-04-09T16:51:30.285Z,78.50
2023-04-09T16:53:57.098Z,77.30
2023-04-09T16:56:23.802Z,78.40
2023-04-09T16:58:50.829Z,77.50
2023-04-09T17:01:17.985Z,77.90
2023-04-09T17:03:44.940Z,77.00
2023-04-09T17:06:11.882Z,76.90
2023-04-09T17:08:38.598Z,77.60
2023-04-09T17:11:05.448Z,77.40
2023-04-09T17:13:34.211Z,77.60
2023-04-09T17:16:02.658Z,77.30
2023-04-09T17:18:29.777Z,78.20
2023-04-09T17:20:56.542Z,77.90
2023-04-09T17:23:23.301Z,78.00
2023-04-09T17:25:49.995Z,78.30
2023-04-09T17:28:18.814Z,78.20
2023-04-09T17:30:45.964Z,78.90
2023-04-09T17:33:12.831Z,79.70
2023-04-09T17:35:39.777Z,82.30
2023-04-09T17:38:06.714Z,79.60
2023-04-09T17:40:33.510Z,81.50
2023-04-09T17:43:00.326Z,81.90
2023-04-09T17:45:27.311Z,79.70
2023-04-09T17:47:54.407Z,80.00
2023-04-09T17:50:21.346Z,80.70
2023-04-09T17:52:48.402Z,79.50
2023-04-09T17:55:15.457Z,80.20
2023-04-09T17:57:42.912Z,80.20
2023-04-09T18:00:10.346Z,79.90
2023-04-09T18:02:37.515Z,81.80
2023-04-09T18:05:04.843Z,81.00
2023-04-09T18:07:34.186Z,81.00
2023-04-09T18:10:01.948Z,81.30
2023-04-09T18:12:28.938Z,85.30
2023-04-09T18:14:55.819Z,84.40
2023-04-09T18:17:22.688Z,82.50
2023-04-09T18:19:49.747Z,80.70
2023-04-09T18:22:16.735Z,83.60
2023-04-09T18:24:43.629Z,80.70
2023-04-09T18:27:10.348Z,81.20
2023-04-09T18:29:37.223Z,81.20
2023-04-09T18:32:03.992Z,84.70
2023-04-09T18:34:30.926Z,85.00
2023-04-09T18:36:57.829Z,82.60
2023-04-09T18:39:24.765Z,81.90
2023-04-09T18:41:51.612Z,83.10
2023-04-09T18:44:18.513Z,81.00
2023-04-09T18:46:45.466Z,81.60
2023-04-09T18:49:12.226Z,82.90
2023-04-09T18:51:39.274Z,84.00
2023-04-09T18:54:06.450Z,82.80
2023-04-09T18:56:33.659Z,82.30
2023-04-09T18:59:00.685Z,84.70
2023-04-09T19:01:27.609Z,83.00
2023-04-09T19:03:54.648Z,85.10
2023-04-09T19:06:21.860Z,84.60
2023-04-09T19:08:50.131Z,84.60
2023-04-09T19:11:16.983Z,83.90
2023-04-09T19:13:44.021Z,83.30
2023-04-09T19:16:10.903Z,83.30
2023-04-09T19:18:37.923Z,84.90
2023-04-09T19:21:05.860Z,82.00
2023-04-09T19:23:34.464Z,82.10
2023-04-09T19:26:01.896Z,83.30
2023-04-09T19:28:28.733Z,82.60
2023-04-09T19:30:55.695Z,83.60
2023-04-09T19:33:23.393Z,80.80
2023-04-09T19:35:50.880Z,80.50
2023-04-09T19:38:18.251Z,80.30
2023-04-09T19:40:45.634Z,82.80
2023-04-09T19:43:12.801Z,81.40
2023-04-09T19:45:40.248Z,81.80
2023-04-09T19:48:07.228Z,81.70
2023-04-09T19:50:34.618Z,81.00
2023-04-09T19:53:01.322Z,81.20
2023-04-09T19:55:28.053Z,80.40
2023-04-09T19:57:54.927Z,82.10
2023-04-09T20:00:21.978Z,81.30
2023-04-09T20:02:48.874Z,81.90
2023-04-09T20:05:16.053Z,80.60
2023-04-09T20:07:44.323Z,80.20
2023-04-09T20:10:11.288Z,80.30
2023-04-09T20:12:38.314Z,80.60
2023-04-09T20:15:07.987Z,80.90
2023-04-09T20:17:36.179Z,80.20
2023-04-09T20:20:04.949Z,80.60
2023-04-09T20:22:31.802Z,80.60
2023-04-09T20:24:59.907Z,82.00
2023-04-09T20:27:27.187Z,80.00
2023-04-09T20:29:53.981Z,80.70
2023-04-09T20:32:20.821Z,78.80
2023-04-09T20:34:47.810Z,79.80
2023-04-09T20:37:14.489Z,80.20
2023-04-09T20:39:41.764Z,79.50
2023-04-09T20:42:08.711Z,78.70
2023-04-09T20:44:35.646Z,79.40
2023-04-09T20:47:02.611Z,79.80
2023-04-09T20:49:29.580Z,80.00
2023-04-09T20:51:56.880Z,78.70
2023-04-09T20:54:23.616Z,79.40
2023-04-09T20:56:51.364Z,78.70
2023-04-09T20:59:18.735Z,79.20
2023-04-09T21:01:45.942Z,79.60
2023-04-09T21:04:13.132Z,80.10
2023-04-09T21:06:40.434Z,79.30
2023-04-09T21:09:07.144Z,79.10
2023-04-09T21:11:33.927Z,78.90
2023-04-09T21:14:00.721Z,78.60
2023-04-09T21:16:29.813Z,79.20
2023-04-09T21:18:56.937Z,79.40
2023-04-09T21:21:23.755Z,80.00
2023-04-09T21:23:50.628Z,79.60
2023-04-09T21:26:17.445Z,79.60
2023-04-09T21:28:44.456Z,79.80
2023-04-09T21:31:11.605Z,79.80
2023-04-09T21:33:39.368Z,79.70
2023-04-09T21:36:08.002Z,79.60
2023-04-09T21:38:35.165Z,79.70
2023-04-09T21:41:02.004Z,79.80
2023-04-09T21:43:29.268Z,80.10
2023-04-09T21:45:59.222Z,79.40
2023-04-09T21:48:30.653Z,80.30
2023-04-09T21:50:58.269Z,79.20
2023-04-09T21:53:25.000Z,80.20
2023-04-09T21:55:51.781Z,79.50
2023-04-09T21:58:18.634Z,79.80
2023-04-09T22:00:45.435Z,79.80
2023-04-09T22:03:12.734Z,80.00
2023-04-09T22:05:39.757Z,80.30
2023-04-09T22:08:07.344Z,80.10
2023-04-09T22:10:34.190Z,79.50
2023-04-09T22:13:01.229Z,80.60
2023-04-09T22:15:28.134Z,80.50
2023-04-09T22:17:55.032Z,80.00
2023-04-09T22:20:24.424Z,80.60
2023-04-09T22:22:51.326Z,80.10
2023-04-09T22:25:18.100Z,80.10
2023-04-09T22:27:44.920Z,80.40
2023-04-09T22:30:11.801Z,80.20
2023-04-09T22:32:38.831Z,80.70
2023-04-09T22:35:06.397Z,80.20
2023-04-09T22:37:33.088Z,80.30
2023-04-09T22:40:00.093Z,80.90
2023-04-09T22:42:27.354Z,80.40
2023-04-09T22:44:54.092Z,79.80
2023-04-09T22:47:21.145Z,80.80
2023-04-09T22:49:48.052Z,80.40
2023-04-09T22:52:14.888Z,80.70
2023-04-09T22:54:43.285Z,80.90
2023-04-09T22:57:10.223Z,80.20
2023-04-09T22:59:40.380Z,80.30
2023-04-09T23:02:08.319Z,81.30
2023-04-09T23:04:35.712Z,81.00
2023-04-09T23:07:04.066Z,80.20
2023-04-09T23:09:31.214Z,80.20
2023-04-09T23:11:58.147Z,80.10
2023-04-09T23:14:24.981Z,80.10
2023-04-09T23:16:51.924Z,79.60
2023-04-09T23:19:18.618Z,80.00
2023-04-09T23:21:45.700Z,79.80
2023-04-09T23:24:12.676Z,79.60
2023-04-09T23:26:41.692Z,80.20
2023-04-09T23:29:08.552Z,80.20
2023-04-09T23:31:35.877Z,80.20
2023-04-09T23:34:02.753Z,80.70
2023-04-09T23:36:29.610Z,80.30
2023-04-09T23:38:56.392Z,80.80
2023-04-09T23:41:23.080Z,80.60
2023-04-09T23:43:50.625Z,80.40
2023-04-09T23:46:17.621Z,81.20
2023-04-09T23:48:44.448Z,80.70
2023-04-09T23:51:16.850Z,80.40
2023-04-09T23:53:44.000Z,81.10
2023-04-09T23:56:10.727Z,80.60
2023-04-09T23:58:37.570Z,79.80
